Overview Statistics Trail Chart Weather Telemetry Raw packets
 

This is the latest recevied weather packets stored in our database for station/object JE7UPL-13. If no packets are shown the sender has not sent any weather packets the latest 10 day(s).

<< 6 7 8 9 10 11 12 >>
Time Temp. Humidity Pressure Rain* Wind** Luminosity Snow
1788407105 25° C 82% 1004.6 hPa 0 mm - - -
1788406206 25° C 82% 1004.7 hPa 0 mm - - -
1788405305 25° C 84% 1004.6 hPa 0 mm - - -
1788404405 24.44° C 85% 1004.5 hPa 0 mm - - -
1788403505 24.44° C 86% 1004.5 hPa 0 mm - - -
1788402606 25° C 86% 1004.8 hPa 0 mm - - -
1788401705 24.44° C 88% 1004.5 hPa 0 mm - - -
1788400806 24.44° C 89% 1004.7 hPa 0 mm - - -
1788399908 24.44° C 90% 1005.2 hPa 0 mm - - -
1788399010 24.44° C 90% 1005.4 hPa 0 mm - - -
1788398105 24.44° C 91% 1005 hPa 0 mm - - -
1788397205 24.44° C 93% 1005.3 hPa 0 mm - - -
1788396305 23.89° C 94% 1005 hPa 0 mm - - -
1788395406 23.89° C 96% 1005.5 hPa 0 mm - - -
1788394507 23.33° C 97% 1005.3 hPa 0 mm - - -
1788393606 23.33° C 97% 1005.4 hPa 0 mm - - -
1788392705 23.33° C 97% 1005 hPa 0 mm - - -
1788391806 23.33° C 97% 1005.1 hPa 0 mm - - -
1788390905 23.33° C 97% 1004.9 hPa 0 mm - - -
1788390006 23.33° C 97% 1005.3 hPa 0 mm - - -
1788389105 23.33° C 97% 1005.9 hPa 0 mm - - -
1788388205 22.78° C 97% 1005.5 hPa 0 mm - - -
1788387305 22.78° C 97% 1006.1 hPa 0 mm - - -
1788386406 22.78° C 95% 1006.6 hPa 0 mm - - -
1788385506 22.78° C 97% 1006.7 hPa 0 mm - - -

* Rain latest hour (hover to see other rain measurements)
** Current wind speed in m/s (hover to see current wind gust speed)